Карточка аэропорта UATT

Внимание!
Информация на этой странице в стадии наполнения.
Если вы не увидели какой-то информации, или заметили неточность - пожалуйста сообщите нам!
Спасибо!
Команда RU-STAFF
Название аэропортаАктобе
Название аэропорта (англ.)Aktobe
Превышение738 ft. (224.9 m.)
Координаты50°14.748', 57°12.402'
Высота перехода2710
Эшелон переходаFL40
Коды ответчика3440-3447, 3540-3547
Зона ОрВДАктобе РПИ (UATT)
Данные METARUATT 241400Z 11009MPS CAVOK 16/M06 Q1018 R12/70D NOSIG RMK QFE744/0992
Проноз погоды (TAF)UATT 241101Z 2412/2512 12010MPS 9999 SCT050CB TX24/2412Z TN10/2502Z TEMPO 2412/2418 13015MPS BKN040CB TEMPO 2506/2512 13015MPS 2000 -SHRA BLDU BKN033CB
NOTAMshow/hide NOTAM
AWOS   TABLE

Информация о ВПП

ВПП Длина ВПП (м.) Покрытие Курс ВПП Частота ILS
133202Бетон135111.7
313202Бетон315111.7

Диспетчерские позиции




Спутниковое изображение